Time;durP1;ratioP1;P1;durP2;ratioP2;P2;SDS_P1;SDS_P2;PMS_P1;PMS_P2;Temp;Humidity;BMP_temperature;BMP_pressure;BME280_temperature;BME280_humidity;BME280_pressure;Samples;Min_cycle;Max_cycle;Signal;HPM_P1;HPM_P2
2021/09/29 00:01:58;;;;;;;;;;;11.90;99.70;;;;;;5031270;28;19936;-77
2021/09/29 00:04:23;;;;;;;;;;;11.90;99.70;;;;;;5035286;28;19957;-77
2021/09/29 00:06:48;;;;;;;;;;;11.80;99.70;;;;;;5039453;28;20011;-77
2021/09/29 00:09:14;;;;;;;;;;;11.80;99.70;;;;;;5056039;28;19912;-79
2021/09/29 00:11:39;;;;;;;;;;;11.80;99.70;;;;;;5038362;28;19913;-78
2021/09/29 00:14:05;;;;;;;;;;;11.80;99.70;;;;;;5056404;28;19931;-78
2021/09/29 00:16:30;;;;;;;;;;;11.90;99.70;;;;;;5039895;28;19913;-78
2021/09/29 00:18:56;;;;;;;;;;;11.80;99.80;;;;;;5037923;28;19989;-78
2021/09/29 00:21:21;;;;;;;;;;;11.80;99.70;;;;;;5036883;28;19912;-78
2021/09/29 00:23:47;;;;;;;;;;;11.80;99.80;;;;;;5040849;28;19916;-78
2021/09/29 00:26:13;;;;;;;;;;;11.80;99.80;;;;;;5038730;28;19931;-78
2021/09/29 00:28:39;;;;;;;;;;;11.90;99.90;;;;;;5055052;28;19913;-78
2021/09/29 00:31:05;;;;;;;;;;;11.90;99.90;;;;;;5038558;28;19974;-78
2021/09/29 00:33:34;;;;;;;;;;;12.00;99.80;;;;;;5037784;28;19913;-78
2021/09/29 00:35:59;;;;;;;;;;;12.00;99.80;;;;;;5039502;28;20396;-78
2021/09/29 00:38:25;;;;;;;;;;;12.00;99.80;;;;;;5036515;28;19948;-78
2021/09/29 00:40:50;;;;;;;;;;;12.00;99.80;;;;;;5039214;28;19913;-77
2021/09/29 00:43:16;;;;;;;;;;;12.10;99.70;;;;;;5038179;28;20098;-78
2021/09/29 00:45:41;;;;;;;;;;;12.10;99.70;;;;;;5038804;28;19913;-78
2021/09/29 00:48:06;;;;;;;;;;;12.10;99.80;;;;;;5039324;28;19916;-78
2021/09/29 00:50:34;;;;;;;;;;;12.10;99.80;;;;;;5036609;28;19913;-78
2021/09/29 00:52:59;;;;;;;;;;;12.10;99.60;;;;;;5037311;28;20536;-78
2021/09/29 00:55:25;;;;;;;;;;;12.10;99.70;;;;;;5055745;28;19909;-78
2021/09/29 00:57:50;;;;;;;;;;;12.10;99.70;;;;;;5037279;28;19917;-78
2021/09/29 01:00:16;;;;;;;;;;;12.00;99.60;;;;;;5054275;28;19905;-78
2021/09/29 01:02:41;;;;;;;;;;;12.10;99.60;;;;;;5036386;28;19920;-78
2021/09/29 01:05:07;;;;;;;;;;;12.00;99.60;;;;;;5036887;28;19916;-78
2021/09/29 01:07:39;;;;;;;;;;;12.10;99.60;;;;;;5038229;28;19909;-78
2021/09/29 01:10:11;;;;;;;;;;;12.10;99.70;;;;;;5039407;28;19909;-78
2021/09/29 01:12:37;;;;;;;;;;;12.10;99.70;;;;;;5039716;28;19913;-78
2021/09/29 01:15:05;;;;;;;;;;;12.10;99.60;;;;;;5037111;28;19908;-78
2021/09/29 01:17:32;;;;;;;;;;;12.10;99.60;;;;;;5036909;28;19917;-78
2021/09/29 01:20:09;;;;;;;;;;;12.00;99.70;;;;;;5053593;28;19909;-78
2021/09/29 01:22:50;;;;;;;;;;;12.10;99.80;;;;;;5038609;28;19923;-78
2021/09/29 01:25:34;;;;;;;;;;;12.10;99.70;;;;;;5037714;28;19919;-78
2021/09/29 01:28:00;;;;;;;;;;;12.10;99.70;;;;;;5036984;28;19921;-78
2021/09/29 01:30:25;;;;;;;;;;;12.10;99.80;;;;;;5037434;28;19920;-79
2021/09/29 01:32:52;;;;;;;;;;;12.20;99.80;;;;;;5035029;28;20282;-78
2021/09/29 01:35:18;;;;;;;;;;;12.20;99.80;;;;;;5039923;28;19909;-78
2021/09/29 01:37:44;;;;;;;;;;;12.20;99.80;;;;;;5035830;28;19943;-78
2021/09/29 01:40:10;;;;;;;;;;;12.20;99.80;;;;;;5038367;28;20015;-78
2021/09/29 01:42:36;;;;;;;;;;;12.20;99.80;;;;;;5033981;28;19917;-78
2021/09/29 01:45:01;;;;;;;;;;;12.20;99.80;;;;;;5038123;28;19915;-78
2021/09/29 01:47:26;;;;;;;;;;;12.20;99.80;;;;;;5053911;28;19913;-78
2021/09/29 01:49:54;;;;;;;;;;;12.20;99.80;;;;;;5037904;28;19909;-78
2021/09/29 01:52:20;;;;;;;;;;;12.30;99.90;;;;;;5052712;28;19909;-79
2021/09/29 01:54:47;;;;;;;;;;;12.20;99.80;;;;;;5036347;28;19924;-79
2021/09/29 01:57:13;;;;;;;;;;;12.20;99.80;;;;;;5053797;28;19999;-78
2021/09/29 01:59:38;;;;;;;;;;;12.20;99.80;;;;;;5036667;28;20047;-78
2021/09/29 02:02:04;;;;;;;;;;;12.20;99.80;;;;;;5035933;28;19913;-78
2021/09/29 02:04:30;;;;;;;;;;;12.20;99.80;;;;;;5038453;28;19908;-78
2021/09/29 02:06:56;;;;;;;;;;;12.20;99.80;;;;;;5037857;28;19905;-78
2021/09/29 02:09:23;;;;;;;;;;;12.20;99.80;;;;;;5020851;28;19984;-78
2021/09/29 02:11:48;;;;;;;;;;;12.20;99.80;;;;;;5036300;28;20297;-78
2021/09/29 02:14:14;;;;;;;;;;;12.20;99.80;;;;;;5037057;28;19905;-78
2021/09/29 02:16:40;;;;;;;;;;;12.20;99.80;;;;;;5035160;28;19913;-78
2021/09/29 02:19:05;;;;;;;;;;;12.20;99.90;;;;;;5036870;28;20424;-78
2021/09/29 02:21:31;;;;;;;;;;;12.20;99.90;;;;;;5036649;28;19909;-78
2021/09/29 02:23:56;;;;;;;;;;;12.10;99.90;;;;;;5039024;28;19916;-78
2021/09/29 02:26:22;;;;;;;;;;;12.10;99.90;;;;;;5052306;28;20036;-78
2021/09/29 02:28:47;;;;;;;;;;;12.00;99.90;;;;;;5038567;28;19917;-78
2021/09/29 02:31:13;;;;;;;;;;;12.00;99.90;;;;;;5033913;28;19909;-78
2021/09/29 02:33:38;;;;;;;;;;;12.00;99.90;;;;;;5038346;28;19991;-78
2021/09/29 02:36:04;;;;;;;;;;;11.90;99.90;;;;;;5038177;28;19913;-78
2021/09/29 02:38:29;;;;;;;;;;;11.90;99.90;;;;;;5035131;28;19920;-78
2021/09/29 02:40:55;;;;;;;;;;;11.90;99.90;;;;;;5036566;28;19913;-78
2021/09/29 02:43:20;;;;;;;;;;;11.90;99.90;;;;;;5038453;28;19917;-78
2021/09/29 02:45:45;;;;;;;;;;;11.80;99.90;;;;;;5038045;28;20003;-78
2021/09/29 02:48:11;;;;;;;;;;;11.80;99.90;;;;;;5034374;28;20049;-78
2021/09/29 02:50:37;;;;;;;;;;;11.80;99.90;;;;;;5036449;28;19962;-78
2021/09/29 02:53:03;;;;;;;;;;;11.80;99.90;;;;;;5036080;28;19920;-78
2021/09/29 02:55:28;;;;;;;;;;;11.80;99.90;;;;;;5038099;28;20289;-78
2021/09/29 02:57:53;;;;;;;;;;;11.80;99.90;;;;;;5037375;28;19913;-78
2021/09/29 03:00:19;;;;;;;;;;;11.80;99.90;;;;;;5033886;28;19913;-78
2021/09/29 03:02:44;;;;;;;;;;;11.70;99.90;;;;;;5033387;28;19916;-78
2021/09/29 03:05:10;;;;;;;;;;;11.80;99.90;;;;;;5035942;28;19913;-78
2021/09/29 03:07:35;;;;;;;;;;;11.70;99.90;;;;;;5037590;28;19932;-78
2021/09/29 03:10:01;;;;;;;;;;;11.70;99.90;;;;;;5036584;28;19913;-79
2021/09/29 03:12:26;;;;;;;;;;;11.70;99.90;;;;;;5035755;28;19995;-78
2021/09/29 03:14:51;;;;;;;;;;;11.70;99.90;;;;;;5035633;28;19916;-78
2021/09/29 03:17:17;;;;;;;;;;;11.70;99.90;;;;;;5051336;28;20316;-78
2021/09/29 03:19:42;;;;;;;;;;;11.70;99.90;;;;;;5034729;28;20427;-78
2021/09/29 03:22:08;;;;;;;;;;;11.60;99.90;;;;;;5034850;28;20003;-78
2021/09/29 03:24:33;;;;;;;;;;;11.70;99.90;;;;;;5035239;28;19920;-77
2021/09/29 03:26:59;;;;;;;;;;;11.70;99.90;;;;;;5037603;28;19916;-77
2021/09/29 03:29:24;;;;;;;;;;;11.70;99.90;;;;;;5034994;28;19933;-78
2021/09/29 03:31:50;;;;;;;;;;;11.70;99.90;;;;;;5021113;28;19913;-77
2021/09/29 03:34:15;;;;;;;;;;;11.70;99.90;;;;;;5041373;28;20484;-79
2021/09/29 03:36:41;;;;;;;;;;;11.80;99.90;;;;;;5040619;28;20359;-78
2021/09/29 03:39:07;;;;;;;;;;;11.80;99.90;;;;;;5040865;28;19909;-78
2021/09/29 03:41:33;;;;;;;;;;;11.90;99.90;;;;;;5039448;28;19930;-78
2021/09/29 03:43:58;;;;;;;;;;;11.90;99.90;;;;;;5044946;28;19956;-78
2021/09/29 03:46:24;;;;;;;;;;;11.90;99.90;;;;;;5042460;28;19913;-78
2021/09/29 03:48:50;;;;;;;;;;;11.90;99.90;;;;;;5045051;28;19912;-78
2021/09/29 03:51:15;;;;;;;;;;;11.90;99.90;;;;;;5045428;28;19909;-78
2021/09/29 03:53:41;;;;;;;;;;;11.90;99.90;;;;;;5038759;28;19920;-78
2021/09/29 03:56:06;;;;;;;;;;;11.90;99.90;;;;;;5039938;28;19940;-77
2021/09/29 03:58:32;;;;;;;;;;;11.80;99.90;;;;;;5040591;28;20337;-78
2021/09/29 04:00:57;;;;;;;;;;;11.80;99.90;;;;;;5036018;28;19975;-78
2021/09/29 04:03:22;;;;;;;;;;;11.80;99.90;;;;;;5039561;28;20023;-78
2021/09/29 04:05:48;;;;;;;;;;;11.80;99.90;;;;;;5039176;28;19913;-79
2021/09/29 04:08:14;;;;;;;;;;;11.80;99.90;;;;;;5037631;28;19992;-77
2021/09/29 04:10:39;;;;;;;;;;;11.80;99.90;;;;;;5054963;28;19905;-76
2021/09/29 04:13:06;;;;;;;;;;;11.80;99.90;;;;;;5038992;28;19915;-76
2021/09/29 04:15:32;;;;;;;;;;;11.80;99.90;;;;;;5035871;28;19924;-76
2021/09/29 04:17:57;;;;;;;;;;;11.80;99.90;;;;;;5038120;28;19909;-76
2021/09/29 04:20:23;;;;;;;;;;;11.70;99.90;;;;;;5038555;28;19931;-74
2021/09/29 04:22:48;;;;;;;;;;;11.70;99.90;;;;;;5038752;28;19912;-75
2021/09/29 04:25:14;;;;;;;;;;;11.70;99.90;;;;;;5039344;28;19909;-77
2021/09/29 04:27:39;;;;;;;;;;;11.70;99.90;;;;;;5038551;28;19999;-77
2021/09/29 04:30:05;;;;;;;;;;;11.70;99.90;;;;;;5037782;28;19913;-77
2021/09/29 04:32:30;;;;;;;;;;;11.80;99.90;;;;;;5038055;28;19912;-76
2021/09/29 04:34:56;;;;;;;;;;;11.80;99.90;;;;;;5039413;28;20455;-75
2021/09/29 04:37:21;;;;;;;;;;;11.80;99.90;;;;;;5039836;28;19996;-76
2021/09/29 04:39:47;;;;;;;;;;;11.80;99.90;;;;;;5039226;28;19913;-74
2021/09/29 04:42:12;;;;;;;;;;;11.80;99.90;;;;;;5037772;28;19993;-74
2021/09/29 04:44:38;;;;;;;;;;;11.80;99.90;;;;;;5038958;28;19908;-74
2021/09/29 04:47:03;;;;;;;;;;;11.90;99.90;;;;;;5034598;28;19909;-74
2021/09/29 04:49:30;;;;;;;;;;;11.90;99.90;;;;;;5035027;28;19963;-75
2021/09/29 04:51:55;;;;;;;;;;;11.90;99.90;;;;;;5035030;28;20349;-74
2021/09/29 04:54:21;;;;;;;;;;;11.90;99.90;;;;;;5037234;28;19923;-75
2021/09/29 04:56:46;;;;;;;;;;;11.90;99.90;;;;;;5038881;28;19905;-74
2021/09/29 04:59:12;;;;;;;;;;;12.00;99.90;;;;;;5039036;28;19909;-74
2021/09/29 05:01:39;;;;;;;;;;;11.90;99.90;;;;;;5038261;28;20377;-74
2021/09/29 05:04:04;;;;;;;;;;;12.00;99.90;;;;;;5038021;28;19909;-74
2021/09/29 05:06:31;;;;;;;;;;;12.00;99.90;;;;;;5036902;28;20378;-77
2021/09/29 05:08:57;;;;;;;;;;;12.00;99.90;;;;;;5037711;28;20354;-77
2021/09/29 05:11:24;;;;;;;;;;;11.90;99.90;;;;;;5037665;28;19932;-75
2021/09/29 05:13:50;;;;;;;;;;;11.90;99.90;;;;;;5039477;28;19912;-75
2021/09/29 05:16:15;;;;;;;;;;;11.90;99.90;;;;;;5028189;28;19932;-75
2021/09/29 05:18:41;;;;;;;;;;;12.00;99.90;;;;;;5031547;28;19975;-76
2021/09/29 05:21:06;;;;;;;;;;;12.00;99.90;;;;;;5051341;28;20346;-76
2021/09/29 05:23:32;;;;;;;;;;;12.10;99.90;;;;;;5039162;28;19920;-76
2021/09/29 05:25:58;;;;;;;;;;;12.10;99.90;;;;;;5039720;28;19909;-75
2021/09/29 05:28:29;;;;;;;;;;;12.10;99.90;;;;;;5038463;28;19973;-76
2021/09/29 05:30:55;;;;;;;;;;;12.10;99.90;;;;;;5048348;28;19944;-76
2021/09/29 05:33:20;;;;;;;;;;;12.10;99.90;;;;;;5036765;28;19952;-75
2021/09/29 05:35:46;;;;;;;;;;;12.10;99.90;;;;;;5052204;28;19909;-76
2021/09/29 05:38:11;;;;;;;;;;;12.10;99.90;;;;;;5040011;28;20023;-76
2021/09/29 05:40:37;;;;;;;;;;;12.10;99.90;;;;;;5039547;28;19984;-76
2021/09/29 05:43:02;;;;;;;;;;;12.10;99.90;;;;;;5054046;28;19916;-75
2021/09/29 05:45:28;;;;;;;;;;;12.10;99.90;;;;;;5038602;28;19908;-76
2021/09/29 05:47:53;;;;;;;;;;;12.10;99.90;;;;;;5039372;28;20331;-75
2021/09/29 05:50:18;;;;;;;;;;;12.10;99.90;;;;;;5037104;28;19931;-75
2021/09/29 05:52:44;;;;;;;;;;;12.10;99.90;;;;;;5037475;28;19944;-75
2021/09/29 05:55:10;;;;;;;;;;;12.10;99.90;;;;;;5037312;28;19909;-75
2021/09/29 05:57:35;;;;;;;;;;;12.00;99.90;;;;;;5038555;28;19908;-75
2021/09/29 06:00:01;;;;;;;;;;;12.00;99.90;;;;;;5038778;28;20000;-76
2021/09/29 06:02:26;;;;;;;;;;;12.10;99.90;;;;;;5036888;28;20462;-76
2021/09/29 06:04:51;;;;;;;;;;;12.00;99.90;;;;;;5032963;28;19920;-75
2021/09/29 06:07:17;;;;;;;;;;;12.10;99.90;;;;;;5027814;28;20281;-78
2021/09/29 06:09:44;;;;;;;;;;;12.10;99.90;;;;;;5031282;28;19904;-79
2021/09/29 06:12:11;;;;;;;;;;;12.10;99.90;;;;;;5035788;28;20393;-79
2021/09/29 06:14:37;;;;;;;;;;;12.10;99.90;;;;;;5036217;28;20354;-79
2021/09/29 06:17:23;;;;;;;;;;;12.10;99.90;;;;;;5032367;28;19917;-80
2021/09/29 06:19:50;;;;;;;;;;;12.20;99.90;;;;;;5037462;28;19999;-80
2021/09/29 06:22:15;;;;;;;;;;;12.20;99.90;;;;;;5035471;28;19935;-80
2021/09/29 06:24:41;;;;;;;;;;;12.20;99.90;;;;;;5035854;28;20413;-79
2021/09/29 06:27:07;;;;;;;;;;;12.20;99.90;;;;;;5038483;28;19908;-81
2021/09/29 06:29:32;;;;;;;;;;;12.20;99.90;;;;;;5038313;28;20289;-82
2021/09/29 06:31:58;;;;;;;;;;;12.30;99.90;;;;;;5035073;28;19994;-81
2021/09/29 06:34:24;;;;;;;;;;;12.30;99.90;;;;;;5034462;28;20029;-83
2021/09/29 06:36:49;;;;;;;;;;;12.40;99.90;;;;;;5038580;28;19916;-81
2021/09/29 06:39:15;;;;;;;;;;;12.50;99.90;;;;;;5033079;28;19917;-82
2021/09/29 06:41:45;;;;;;;;;;;12.60;99.90;;;;;;5035900;28;19917;-81
2021/09/29 06:44:11;;;;;;;;;;;12.70;99.90;;;;;;5038437;28;19904;-82
2021/09/29 06:46:36;;;;;;;;;;;12.70;99.90;;;;;;5037511;28;19924;-78
2021/09/29 06:49:01;;;;;;;;;;;12.80;99.90;;;;;;5050792;28;20281;-81
2021/09/29 06:51:27;;;;;;;;;;;12.80;99.90;;;;;;5046334;28;20281;-83
2021/09/29 06:53:52;;;;;;;;;;;12.90;99.90;;;;;;5034348;28;20293;-81
2021/09/29 06:56:19;;;;;;;;;;;12.90;99.90;;;;;;5036871;28;19940;-81
2021/09/29 06:58:45;;;;;;;;;;;13.00;99.90;;;;;;5037871;28;20396;-81
2021/09/29 07:01:11;;;;;;;;;;;13.00;99.90;;;;;;5035723;28;20003;-83
2021/09/29 07:03:36;;;;;;;;;;;13.00;99.90;;;;;;5033830;28;20011;-81
2021/09/29 07:06:02;;;;;;;;;;;13.10;99.90;;;;;;5038481;28;20362;-81
2021/09/29 07:08:27;;;;;;;;;;;13.10;99.90;;;;;;5052875;28;19909;-84
2021/09/29 07:10:53;;;;;;;;;;;13.10;99.90;;;;;;5037803;28;19916;-80
2021/09/29 07:13:19;;;;;;;;;;;13.10;99.90;;;;;;5036531;28;19915;-79
2021/09/29 07:15:44;;;;;;;;;;;13.10;99.90;;;;;;5037632;28;19964;-81
2021/09/29 07:18:10;;;;;;;;;;;13.10;99.90;;;;;;5021641;28;19936;-81
2021/09/29 07:20:36;;;;;;;;;;;13.10;99.90;;;;;;5036918;28;19987;-80
2021/09/29 07:23:04;;;;;;;;;;;13.10;99.90;;;;;;5031854;28;20011;-79
2021/09/29 07:25:30;;;;;;;;;;;13.10;99.90;;;;;;5034622;28;19912;-81
2021/09/29 07:27:57;;;;;;;;;;;13.00;99.90;;;;;;5035325;28;19924;-82
2021/09/29 07:30:23;;;;;;;;;;;13.00;99.90;;;;;;5035137;28;19909;-79
2021/09/29 07:32:51;;;;;;;;;;;13.10;99.90;;;;;;5035847;28;19931;-78
2021/09/29 07:35:17;;;;;;;;;;;13.10;99.90;;;;;;5032035;28;19915;-81
2021/09/29 07:37:42;;;;;;;;;;;13.10;99.90;;;;;;5034404;28;19909;-82
2021/09/29 07:40:08;;;;;;;;;;;13.10;99.90;;;;;;5034848;28;19992;-80
2021/09/29 07:42:33;;;;;;;;;;;13.10;99.90;;;;;;5036097;28;20070;-81
2021/09/29 07:44:59;;;;;;;;;;;13.10;99.90;;;;;;5034260;28;19913;-78
2021/09/29 07:47:24;;;;;;;;;;;13.10;99.90;;;;;;5037648;28;19915;-78
2021/09/29 07:49:50;;;;;;;;;;;13.20;99.90;;;;;;5035435;28;19913;-79
2021/09/29 07:52:15;;;;;;;;;;;13.20;99.90;;;;;;5032731;28;19920;-80
2021/09/29 07:54:41;;;;;;;;;;;13.20;99.90;;;;;;5034085;28;19963;-80
2021/09/29 07:57:06;;;;;;;;;;;13.20;99.90;;;;;;5033908;28;19912;-81
2021/09/29 07:59:31;;;;;;;;;;;13.20;99.90;;;;;;5034536;28;19909;-78
2021/09/29 08:01:57;;;;;;;;;;;13.30;99.90;;;;;;5034578;28;20344;-78
2021/09/29 08:04:22;;;;;;;;;;;13.40;99.90;;;;;;5034954;28;20228;-78
2021/09/29 08:06:48;;;;;;;;;;;13.40;99.90;;;;;;5035152;28;19909;-79
2021/09/29 08:09:14;;;;;;;;;;;13.50;99.90;;;;;;5031056;28;20321;-78
2021/09/29 08:11:39;;;;;;;;;;;13.70;99.90;;;;;;5031089;28;20031;-77
2021/09/29 08:14:05;;;;;;;;;;;13.80;99.90;;;;;;5036522;28;19942;-82
2021/09/29 08:16:30;;;;;;;;;;;13.80;99.90;;;;;;5035791;28;19967;-82
2021/09/29 08:18:56;;;;;;;;;;;13.90;99.90;;;;;;5036790;28;19978;-80
2021/09/29 08:21:28;;;;;;;;;;;13.90;99.90;;;;;;5039545;28;19959;-80
2021/09/29 08:23:59;;;;;;;;;;;13.90;99.90;;;;;;5035409;28;20136;-82
2021/09/29 08:29:48;;;;;;;;;;;13.90;99.90;;;;;;5040579;28;19919;-79
2021/09/29 08:31:52;;;;;;;;;;;13.90;99.90;;;;;;5043716;28;20466;-86
2021/09/29 08:34:36;;;;;;;;;;;14.00;99.90;;;;;;5038562;28;19909;-84
2021/09/29 08:37:49;;;;;;;;;;;14.10;99.90;;;;;;5040890;28;19916;-81
2021/09/29 08:44:58;;;;;;;;;;;14.70;99.90;;;;;;5037153;28;20942;-82
2021/09/29 08:49:59;;;;;;;;;;;14.90;99.90;;;;;;5039854;28;19908;-80
2021/09/29 09:16:32;;;;;;;;;;;15.90;99.00;;;;;;5039734;28;19920;-77
2021/09/29 09:18:58;;;;;;;;;;;15.90;99.00;;;;;;5035872;28;20039;-77
2021/09/29 09:21:24;;;;;;;;;;;16.00;98.80;;;;;;5038676;28;19947;-77
2021/09/29 09:23:49;;;;;;;;;;;16.10;98.60;;;;;;5038120;28;19967;-78
2021/09/29 09:26:16;;;;;;;;;;;16.20;98.70;;;;;;5037218;28;19983;-80
2021/09/29 09:28:43;;;;;;;;;;;16.30;98.10;;;;;;5035445;28;19970;-82
2021/09/29 09:31:12;;;;;;;;;;;16.40;97.80;;;;;;5037562;28;19917;-82
2021/09/29 09:33:51;;;;;;;;;;;16.40;97.60;;;;;;5038821;28;19916;-78
2021/09/29 09:36:31;;;;;;;;;;;16.40;97.20;;;;;;5036287;28;19909;-81
2021/09/29 09:38:57;;;;;;;;;;;16.40;97.20;;;;;;5037387;28;19913;-80
2021/09/29 09:41:24;;;;;;;;;;;16.40;97.00;;;;;;5037141;28;20076;-79
2021/09/29 09:43:53;;;;;;;;;;;16.30;97.20;;;;;;5037083;28;19917;-78
2021/09/29 09:46:21;;;;;;;;;;;16.30;97.20;;;;;;5038291;28;19921;-79
2021/09/29 09:48:57;;;;;;;;;;;16.40;97.30;;;;;;5038799;28;19959;-78
2021/09/29 09:51:22;;;;;;;;;;;16.40;96.90;;;;;;5036223;28;19966;-80
2021/09/29 09:53:52;;;;;;;;;;;16.40;96.80;;;;;;5040325;28;19917;-82
2021/09/29 09:56:24;;;;;;;;;;;16.40;96.90;;;;;;5036834;28;19916;-80
2021/09/29 09:58:51;;;;;;;;;;;16.40;96.50;;;;;;5037715;28;19919;-82
2021/09/29 10:01:17;;;;;;;;;;;16.40;96.50;;;;;;5052561;28;19919;-81
2021/09/29 10:03:43;;;;;;;;;;;16.40;96.20;;;;;;5037554;28;19920;-84
2021/09/29 10:06:08;;;;;;;;;;;16.40;96.30;;;;;;5038174;28;19909;-85
2021/09/29 10:08:34;;;;;;;;;;;16.50;96.20;;;;;;5038988;28;19913;-85
2021/09/29 10:11:16;;;;;;;;;;;16.60;96.20;;;;;;5038192;28;20309;-84
2021/09/29 10:27:07;;;;;;;;;;;16.90;95.00;;;;;;5037378;28;19912;-81
2021/09/29 10:29:42;;;;;;;;;;;17.00;95.30;;;;;;5038280;28;20003;-80
2021/09/29 10:32:17;;;;;;;;;;;17.00;95.10;;;;;;5036925;28;19951;-80
2021/09/29 10:34:53;;;;;;;;;;;17.20;94.90;;;;;;5036152;28;20018;-80
2021/09/29 10:47:56;;;;;;;;;;;17.80;94.20;;;;;;5036158;28;19912;-82
2021/09/29 11:28:41;;;;;;;;;;;18.30;91.70;;;;;;5035429;28;20390;-81
2021/09/29 11:31:17;;;;;;;;;;;18.40;91.40;;;;;;5032179;28;19924;-80
2021/09/29 11:33:54;;;;;;;;;;;18.40;91.20;;;;;;5035140;28;19909;-83
2021/09/29 11:36:30;;;;;;;;;;;18.40;91.30;;;;;;5036289;28;19919;-81
2021/09/29 12:08:53;;;;;;;;;;;19.10;81.20;;;;;;5044432;28;19963;-84
2021/09/29 12:11:22;;;;;;;;;;;19.20;81.80;;;;;;5040402;28;19913;-85
2021/09/29 12:13:56;;;;;;;;;;;19.20;81.90;;;;;;5045441;28;19920;-83
2021/09/29 12:16:39;;;;;;;;;;;19.30;82.50;;;;;;5041780;28;19913;-82
2021/09/29 12:19:07;;;;;;;;;;;19.50;83.70;;;;;;5038053;28;19956;-78
2021/09/29 12:21:39;;;;;;;;;;;19.60;78.80;;;;;;5038925;28;20039;-81
2021/09/29 12:24:07;;;;;;;;;;;19.60;80.20;;;;;;5040208;28;19917;-84
2021/09/29 12:26:39;;;;;;;;;;;19.60;79.70;;;;;;5036511;28;19919;-84
2021/09/29 12:29:15;;;;;;;;;;;19.70;81.60;;;;;;5039646;22;19980;-66
2021/09/29 12:31:46;;;;;;;;;;;19.80;79.40;;;;;;5008972;28;19998;-66
2021/09/29 12:34:23;;;;;;;;;;;19.80;78.90;;;;;;5007394;28;19920;-66
2021/09/29 12:36:48;;;;;;;;;;;19.80;77.90;;;;;;5009955;28;20357;-66
2021/09/29 12:39:18;;;;;;;;;;;19.70;79.30;;;;;;5009684;28;19916;-67
2021/09/29 12:41:48;;;;;;;;;;;19.60;78.20;;;;;;5008478;28;20406;-67
2021/09/29 12:44:16;;;;;;;;;;;19.60;78.20;;;;;;5008621;28;19925;-66
2021/09/29 12:46:44;;;;;;;;;;;19.60;78.90;;;;;;5009519;28;20261;-67
2021/09/29 12:49:14;;;;;;;;;;;19.60;78.10;;;;;;5007977;28;19996;-66
2021/09/29 12:51:40;;;;;;;;;;;19.60;78.10;;;;;;5006432;28;20338;-66
2021/09/29 12:54:08;;;;;;;;;;;19.50;77.00;;;;;;5010354;28;19927;-66
2021/09/29 12:56:33;;;;;;;;;;;19.50;78.10;;;;;;5008705;28;19916;-66
2021/09/29 12:58:59;;;;;;;;;;;19.60;77.30;;;;;;5007578;28;19909;-66
2021/09/29 13:01:24;;;;;;;;;;;19.50;77.30;;;;;;5008236;28;19913;-66
2021/09/29 13:03:49;;;;;;;;;;;19.50;77.90;;;;;;5006495;28;19917;-68
2021/09/29 13:06:15;;;;;;;;;;;19.50;78.30;;;;;;5009857;28;19906;-68
2021/09/29 13:08:41;;;;;;;;;;;19.50;78.00;;;;;;5008805;28;19913;-68
2021/09/29 13:11:07;;;;;;;;;;;19.50;77.90;;;;;;5005092;28;19913;-67
2021/09/29 13:13:34;;;;;;;;;;;19.50;77.40;;;;;;5008007;28;19913;-66
2021/09/29 13:16:02;;;;;;;;;;;19.40;78.60;;;;;;5007728;28;20028;-67
2021/09/29 13:18:39;;;;;;;;;;;19.50;78.00;;;;;;5008232;28;19913;-67
2021/09/29 13:21:10;;;;;;;;;;;19.50;77.00;;;;;;5008498;28;20036;-67
2021/09/29 13:23:43;;;;;;;;;;;19.40;77.30;;;;;;5006737;28;20393;-66
2021/09/29 13:36:52;;;;;;;;;;;19.40;77.10;;;;;;5008915;28;19956;-67
2021/09/29 13:39:18;;;;;;;;;;;19.40;77.20;;;;;;5006970;28;19921;-66
2021/09/29 13:41:45;;;;;;;;;;;19.50;77.30;;;;;;5006632;28;19910;-66
2021/09/29 13:44:11;;;;;;;;;;;19.50;77.70;;;;;;5007326;28;20023;-66
2021/09/29 13:46:37;;;;;;;;;;;19.50;76.60;;;;;;5009156;28;20040;-66
2021/09/29 13:49:05;;;;;;;;;;;19.50;77.30;;;;;;5007482;28;19997;-66
2021/09/29 13:51:31;;;;;;;;;;;19.60;76.90;;;;;;5008366;28;20270;-67
2021/09/29 13:53:57;;;;;;;;;;;19.50;76.60;;;;;;5007985;28;19914;-67
2021/09/29 13:56:30;;;;;;;;;;;19.40;77.50;;;;;;5006996;28;19968;-67
2021/09/29 14:02:02;;;;;;;;;;;19.50;77.60;;;;;;5006382;28;19915;-67
2021/09/29 14:32:02;;;;;;;;;;;18.90;80.10;;;;;;5006475;28;19932;-68
2021/09/29 14:34:28;;;;;;;;;;;18.80;80.90;;;;;;5006735;28;19914;-68
2021/09/29 14:36:53;;;;;;;;;;;18.70;81.80;;;;;;5004540;28;19913;-68
2021/09/29 14:39:18;;;;;;;;;;;18.50;82.10;;;;;;5007659;28;19932;-68
2021/09/29 14:41:44;;;;;;;;;;;18.50;83.00;;;;;;5006979;28;20357;-68
2021/09/29 14:44:11;;;;;;;;;;;18.40;83.50;;;;;;5007198;28;19980;-68
2021/09/29 14:46:36;;;;;;;;;;;18.20;84.60;;;;;;5006832;28;20405;-68
2021/09/29 14:49:03;;;;;;;;;;;18.00;87.10;;;;;;5004154;28;19909;-68
2021/09/29 14:51:28;;;;;;;;;;;17.80;89.30;;;;;;5007113;28;19996;-67
2021/09/29 14:53:56;;;;;;;;;;;17.60;90.90;;;;;;5007559;28;20036;-68
2021/09/29 14:56:22;;;;;;;;;;;17.30;91.90;;;;;;5007778;28;19916;-67
2021/09/29 14:58:47;;;;;;;;;;;17.10;92.50;;;;;;5005775;28;19918;-67
2021/09/29 15:01:14;;;;;;;;;;;16.80;92.60;;;;;;5006115;28;20052;-67
2021/09/29 15:03:40;;;;;;;;;;;16.60;93.10;;;;;;5005762;28;19913;-68
2021/09/29 15:06:06;;;;;;;;;;;16.30;93.60;;;;;;5004776;28;19914;-68
2021/09/29 15:08:32;;;;;;;;;;;15.90;94.40;;;;;;5006285;28;19913;-69
2021/09/29 15:10:58;;;;;;;;;;;15.70;94.30;;;;;;5002471;28;19913;-69
2021/09/29 15:13:34;;;;;;;;;;;15.40;94.90;;;;;;4999062;28;19918;-69
2021/09/29 15:16:07;;;;;;;;;;;15.20;95.40;;;;;;5002922;28;19913;-69
2021/09/29 15:18:46;;;;;;;;;;;15.20;95.60;;;;;;5003012;28;19987;-68
2021/09/29 15:21:27;;;;;;;;;;;15.00;95.70;;;;;;5003782;28;19959;-68
2021/09/29 15:31:51;;;;;;;;;;;14.70;96.70;;;;;;5003645;28;19917;-71
2021/09/29 15:50:32;;;;;;;;;;;14.60;96.80;;;;;;5005922;28;20370;-70
2021/09/29 15:55:32;;;;;;;;;;;14.50;96.90;;;;;;5005932;28;19911;-70
2021/09/29 16:00:44;;;;;;;;;;;14.50;96.70;;;;;;5005415;28;19920;-70
2021/09/29 16:03:21;;;;;;;;;;;14.50;96.60;;;;;;5004538;28;20350;-70
2021/09/29 16:11:50;;;;;;;;;;;14.40;96.50;;;;;;5005569;28;19917;-70
2021/09/29 16:14:30;;;;;;;;;;;14.40;96.50;;;;;;5006309;28;19905;-70
2021/09/29 16:30:55;;;;;;;;;;;14.20;95.50;;;;;;5003724;28;19919;-69
2021/09/29 16:35:58;;;;;;;;;;;14.10;95.50;;;;;;5003947;28;19940;-71
2021/09/29 16:38:24;;;;;;;;;;;14.10;95.30;;;;;;5002178;28;20262;-71
2021/09/29 16:40:49;;;;;;;;;;;14.10;95.40;;;;;;5005960;28;20373;-71
2021/09/29 16:43:18;;;;;;;;;;;14.10;95.20;;;;;;5007378;28;19937;-71
2021/09/29 16:45:44;;;;;;;;;;;14.10;95.20;;;;;;5005147;28;19976;-70
2021/09/29 16:48:15;;;;;;;;;;;14.00;95.20;;;;;;5009058;28;20329;-70
2021/09/29 16:50:54;;;;;;;;;;;14.00;95.20;;;;;;5006136;28;20295;-69
2021/09/29 16:53:20;;;;;;;;;;;13.90;95.10;;;;;;5008661;28;19913;-69
2021/09/29 16:55:47;;;;;;;;;;;13.80;95.10;;;;;;5006407;28;20015;-70
2021/09/29 16:58:21;;;;;;;;;;;13.80;95.20;;;;;;5008206;28;19945;-70
2021/09/29 17:00:52;;;;;;;;;;;13.70;95.30;;;;;;5005781;28;19929;-69
2021/09/29 17:03:18;;;;;;;;;;;13.70;95.40;;;;;;5006720;28;20028;-70
2021/09/29 17:05:43;;;;;;;;;;;13.60;95.30;;;;;;5007959;28;19996;-69
2021/09/29 17:08:10;;;;;;;;;;;13.60;95.50;;;;;;5007079;28;19968;-69
2021/09/29 17:10:35;;;;;;;;;;;13.50;95.50;;;;;;5006859;28;19922;-69
2021/09/29 17:13:01;;;;;;;;;;;13.50;95.60;;;;;;5007181;28;19918;-69
2021/09/29 17:15:26;;;;;;;;;;;13.40;95.60;;;;;;5008469;28;19955;-69
2021/09/29 17:17:52;;;;;;;;;;;13.40;95.70;;;;;;5007848;28;19918;-69
2021/09/29 17:20:17;;;;;;;;;;;13.30;95.70;;;;;;5005943;28;20382;-68
2021/09/29 17:22:43;;;;;;;;;;;13.20;95.70;;;;;;5004752;28;19960;-70
2021/09/29 17:25:08;;;;;;;;;;;13.20;95.80;;;;;;5004953;28;22002;-71
2021/09/29 17:27:34;;;;;;;;;;;13.10;95.90;;;;;;5004197;28;20076;-71
2021/09/29 17:30:00;;;;;;;;;;;13.10;96.10;;;;;;5007079;28;19949;-69
2021/09/29 17:32:42;;;;;;;;;;;13.10;96.00;;;;;;5007512;28;19989;-70
2021/09/29 17:35:13;;;;;;;;;;;13.00;96.10;;;;;;5006098;28;20398;-70
2021/09/29 17:53:49;;;;;;;;;;;12.70;96.20;;;;;;5006610;28;20013;-70
2021/09/29 17:56:15;;;;;;;;;;;12.70;96.30;;;;;;5007846;28;19929;-70
2021/09/29 17:58:40;;;;;;;;;;;12.70;96.20;;;;;;5006657;28;20239;-70
2021/09/29 18:01:06;;;;;;;;;;;12.60;96.20;;;;;;5006953;28;19932;-74
2021/09/29 18:03:41;;;;;;;;;;;12.60;96.10;;;;;;5004922;28;20043;-70
2021/09/29 18:06:15;;;;;;;;;;;12.60;96.20;;;;;;5004591;28;20051;-70
2021/09/29 18:08:42;;;;;;;;;;;12.60;96.10;;;;;;5004170;28;20369;-70
2021/09/29 18:11:08;;;;;;;;;;;12.50;96.10;;;;;;5003147;28;19909;-70
2021/09/29 18:13:33;;;;;;;;;;;12.50;96.00;;;;;;5003730;28;19909;-70